CheckWX is a tool to help pilots better visualize weather data.  It is not intended as a substitute for an official pre-flight weather briefing.

08:54:48 UTC

EETN METAR
Tallinn Airport
Tallinn, Estonia
Current

35 mins ago

EETN 220820Z 04007KT 360V060 CAVOK M04/M09 Q1040 R08/19//95 NOSIG
Observed
Feb-22 @ 08:20 UTC
Wind
  • 040° at 7 KTS
Visibility
10,000+ meters
Flight Rules
VFR
Cloud Levels
  • Clear skies
Temperature
-4°C / 25°F
Dewpoint
-9°C / 16°F
Humidity
69%
Altimeter
30.71" Hg
Pressure
1039.91 hPa
Previous

1 hour ago

EETN 220750Z 03006KT 330V070 CAVOK M04/M09 Q1040 R08/19//95 NOSIG
Observed
Feb-22 @ 07:50 UTC
Wind
  • 030° at 6 KTS
Visibility
10,000+ meters
Flight Rules
VFR
Cloud Levels
  • Clear skies
Temperature
-4°C / 25°F
Dewpoint
-9°C / 16°F
Humidity
69%
Altimeter
30.71" Hg
Pressure
1039.91 hPa
Previous

2 hours ago

EETN 220720Z 02006KT 330V060 CAVOK M05/M09 Q1039 R08/19//95 NOSIG
Observed
Feb-22 @ 07:20 UTC
Wind
  • 020° at 6 KTS
Visibility
10,000+ meters
Flight Rules
VFR
Cloud Levels
  • Clear skies
Temperature
-5°C / 23°F
Dewpoint
-9°C / 16°F
Humidity
74%
Altimeter
30.68" Hg
Pressure
1038.91 hPa